sensor_id;sensor_type;location;lat;lon;timestamp;temperature;humidity
10245;DHT22;5167;52.164;10.530;2022-11-20T00:01:25;-0.20;35.40
10245;DHT22;5167;52.164;10.530;2022-11-20T00:03:53;-0.30;35.20
10245;DHT22;5167;52.164;10.530;2022-11-20T00:06:19;-0.30;35.60
10245;DHT22;5167;52.164;10.530;2022-11-20T00:08:46;-0.30;35.90
10245;DHT22;5167;52.164;10.530;2022-11-20T00:11:14;-0.30;35.80
10245;DHT22;5167;52.164;10.530;2022-11-20T00:13:40;-0.20;36.00
10245;DHT22;5167;52.164;10.530;2022-11-20T00:16:07;-0.20;36.00
10245;DHT22;5167;52.164;10.530;2022-11-20T00:18:34;-0.20;36.40
10245;DHT22;5167;52.164;10.530;2022-11-20T00:21:09;-0.30;35.90
10245;DHT22;5167;52.164;10.530;2022-11-20T00:23:35;-0.30;36.10
10245;DHT22;5167;52.164;10.530;2022-11-20T00:26:05;-0.30;36.00
10245;DHT22;5167;52.164;10.530;2022-11-20T00:28:31;-0.40;36.00
10245;DHT22;5167;52.164;10.530;2022-11-20T00:31:09;-0.30;35.50
10245;DHT22;5167;52.164;10.530;2022-11-20T00:33:35;-0.40;35.60
10245;DHT22;5167;52.164;10.530;2022-11-20T00:36:05;-0.40;35.80
10245;DHT22;5167;52.164;10.530;2022-11-20T00:38:32;-0.30;35.70
10245;DHT22;5167;52.164;10.530;2022-11-20T00:40:59;-0.40;36.20
10245;DHT22;5167;52.164;10.530;2022-11-20T00:43:25;-0.40;36.20
10245;DHT22;5167;52.164;10.530;2022-11-20T00:45:59;-0.40;36.30
10245;DHT22;5167;52.164;10.530;2022-11-20T00:48:26;-0.40;36.10
10245;DHT22;5167;52.164;10.530;2022-11-20T00:50:52;-0.40;36.50
10245;DHT22;5167;52.164;10.530;2022-11-20T00:53:17;-0.40;36.50
10245;DHT22;5167;52.164;10.530;2022-11-20T00:55:43;-0.40;36.40
10245;DHT22;5167;52.164;10.530;2022-11-20T00:58:17;-0.50;36.80
10245;DHT22;5167;52.164;10.530;2022-11-20T01:00:42;-0.40;36.60
10245;DHT22;5167;52.164;10.530;2022-11-20T01:03:08;-0.40;36.90
10245;DHT22;5167;52.164;10.530;2022-11-20T01:05:34;-0.40;36.50
10245;DHT22;5167;52.164;10.530;2022-11-20T01:08:00;-0.40;36.40
10245;DHT22;5167;52.164;10.530;2022-11-20T01:10:26;-0.40;36.20
10245;DHT22;5167;52.164;10.530;2022-11-20T01:12:51;-0.40;35.90
10245;DHT22;5167;52.164;10.530;2022-11-20T01:15:37;-0.50;35.80
10245;DHT22;5167;52.164;10.530;2022-11-20T01:18:02;-0.50;36.10
10245;DHT22;5167;52.164;10.530;2022-11-20T01:20:28;-0.50;35.90
10245;DHT22;5167;52.164;10.530;2022-11-20T01:22:53;-0.50;35.90
10245;DHT22;5167;52.164;10.530;2022-11-20T01:25:19;-0.50;35.60
10245;DHT22;5167;52.164;10.530;2022-11-20T01:27:44;-0.50;35.30
10245;DHT22;5167;52.164;10.530;2022-11-20T01:30:10;-0.60;35.00
10245;DHT22;5167;52.164;10.530;2022-11-20T01:32:36;-0.60;35.20
10245;DHT22;5167;52.164;10.530;2022-11-20T01:35:01;-0.60;35.30
10245;DHT22;5167;52.164;10.530;2022-11-20T01:37:27;-0.60;35.10
10245;DHT22;5167;52.164;10.530;2022-11-20T01:39:52;-0.60;34.70
10245;DHT22;5167;52.164;10.530;2022-11-20T01:42:18;-0.70;35.20
10245;DHT22;5167;52.164;10.530;2022-11-20T01:48:06;-0.70;35.40
10245;DHT22;5167;52.164;10.530;2022-11-20T01:50:32;-0.70;35.60
10245;DHT22;5167;52.164;10.530;2022-11-20T01:53:05;-0.80;35.40
10245;DHT22;5167;52.164;10.530;2022-11-20T01:55:39;-0.80;35.60
10245;DHT22;5167;52.164;10.530;2022-11-20T01:58:06;-0.80;35.60
10245;DHT22;5167;52.164;10.530;2022-11-20T02:00:32;-0.80;35.80
10245;DHT22;5167;52.164;10.530;2022-11-20T02:03:02;-0.80;35.80
10245;DHT22;5167;52.164;10.530;2022-11-20T02:05:35;-0.80;35.50
10245;DHT22;5167;52.164;10.530;2022-11-20T02:08:03;-0.70;35.80
10245;DHT22;5167;52.164;10.530;2022-11-20T02:10:30;-0.80;35.80
10245;DHT22;5167;52.164;10.530;2022-11-20T02:12:56;-0.80;35.90
10245;DHT22;5167;52.164;10.530;2022-11-20T02:15:41;-0.80;36.20
10245;DHT22;5167;52.164;10.530;2022-11-20T02:18:07;-0.80;35.70
10245;DHT22;5167;52.164;10.530;2022-11-20T02:20:33;-0.80;35.80
10245;DHT22;5167;52.164;10.530;2022-11-20T02:26:01;-0.80;36.20
10245;DHT22;5167;52.164;10.530;2022-11-20T02:28:28;-0.70;36.20
10245;DHT22;5167;52.164;10.530;2022-11-20T02:30:54;-0.80;35.90
10245;DHT22;5167;52.164;10.530;2022-11-20T02:33:19;-0.80;36.00
10245;DHT22;5167;52.164;10.530;2022-11-20T02:35:46;-0.80;35.60
10245;DHT22;5167;52.164;10.530;2022-11-20T02:38:13;-0.80;34.70
10245;DHT22;5167;52.164;10.530;2022-11-20T02:40:38;-0.80;34.60
10245;DHT22;5167;52.164;10.530;2022-11-20T02:43:04;-0.80;34.70
10245;DHT22;5167;52.164;10.530;2022-11-20T02:45:30;-0.80;34.60
10245;DHT22;5167;52.164;10.530;2022-11-20T02:47:55;-0.80;35.00
10245;DHT22;5167;52.164;10.530;2022-11-20T02:50:21;-0.70;34.60
10245;DHT22;5167;52.164;10.530;2022-11-20T02:52:46;-0.80;35.40
10245;DHT22;5167;52.164;10.530;2022-11-20T02:55:12;-0.80;35.40
10245;DHT22;5167;52.164;10.530;2022-11-20T02:57:38;-0.80;34.90
10245;DHT22;5167;52.164;10.530;2022-11-20T03:00:04;-0.80;34.50
10245;DHT22;5167;52.164;10.530;2022-11-20T03:02:30;-0.80;35.20
10245;DHT22;5167;52.164;10.530;2022-11-20T03:04:56;-0.80;34.40
10245;DHT22;5167;52.164;10.530;2022-11-20T03:07:22;-0.80;34.40
10245;DHT22;5167;52.164;10.530;2022-11-20T03:09:47;-0.90;34.50
10245;DHT22;5167;52.164;10.530;2022-11-20T03:12:13;-0.90;34.10
10245;DHT22;5167;52.164;10.530;2022-11-20T03:14:39;-0.90;34.40
10245;DHT22;5167;52.164;10.530;2022-11-20T03:17:04;-1.00;33.80
10245;DHT22;5167;52.164;10.530;2022-11-20T03:19:30;-0.90;34.30
10245;DHT22;5167;52.164;10.530;2022-11-20T03:21:55;-0.90;34.60
10245;DHT22;5167;52.164;10.530;2022-11-20T03:24:21;-1.00;34.80
10245;DHT22;5167;52.164;10.530;2022-11-20T03:26:47;-1.00;33.90
10245;DHT22;5167;52.164;10.530;2022-11-20T03:29:12;-1.00;33.70
10245;DHT22;5167;52.164;10.530;2022-11-20T03:31:40;-1.00;33.80
10245;DHT22;5167;52.164;10.530;2022-11-20T03:34:07;-1.10;33.70
10245;DHT22;5167;52.164;10.530;2022-11-20T03:36:33;-1.00;34.00
10245;DHT22;5167;52.164;10.530;2022-11-20T03:38:59;-1.00;34.00
10245;DHT22;5167;52.164;10.530;2022-11-20T03:41:31;-1.10;34.30
10245;DHT22;5167;52.164;10.530;2022-11-20T03:44:02;-1.00;34.40
10245;DHT22;5167;52.164;10.530;2022-11-20T03:46:28;-1.00;34.30
10245;DHT22;5167;52.164;10.530;2022-11-20T03:48:54;-1.00;35.00
10245;DHT22;5167;52.164;10.530;2022-11-20T03:51:22;-1.00;35.20
10245;DHT22;5167;52.164;10.530;2022-11-20T03:53:50;-1.00;35.40
10245;DHT22;5167;52.164;10.530;2022-11-20T03:56:18;-1.00;35.70
10245;DHT22;5167;52.164;10.530;2022-11-20T03:58:44;-1.10;35.60
10245;DHT22;5167;52.164;10.530;2022-11-20T04:01:27;-1.10;35.90
10245;DHT22;5167;52.164;10.530;2022-11-20T04:03:54;-1.10;35.30
10245;DHT22;5167;52.164;10.530;2022-11-20T04:06:22;-1.10;35.10
10245;DHT22;5167;52.164;10.530;2022-11-20T04:08:48;-1.10;35.10
10245;DHT22;5167;52.164;10.530;2022-11-20T04:11:16;-1.00;35.30
10245;DHT22;5167;52.164;10.530;2022-11-20T04:13:45;-1.00;35.10
10245;DHT22;5167;52.164;10.530;2022-11-20T04:16:11;-1.20;34.50
10245;DHT22;5167;52.164;10.530;2022-11-20T04:18:37;-1.10;34.90
10245;DHT22;5167;52.164;10.530;2022-11-20T04:21:03;-1.00;34.70
10245;DHT22;5167;52.164;10.530;2022-11-20T04:23:29;-1.00;34.90
10245;DHT22;5167;52.164;10.530;2022-11-20T04:25:54;-1.00;34.90
10245;DHT22;5167;52.164;10.530;2022-11-20T04:28:20;-1.00;34.60
10245;DHT22;5167;52.164;10.530;2022-11-20T04:30:46;-1.00;34.30
10245;DHT22;5167;52.164;10.530;2022-11-20T04:33:11;-1.00;34.50
10245;DHT22;5167;52.164;10.530;2022-11-20T04:35:37;-1.00;34.60
10245;DHT22;5167;52.164;10.530;2022-11-20T04:38:03;-1.00;34.40
10245;DHT22;5167;52.164;10.530;2022-11-20T04:40:29;-0.90;34.80
10245;DHT22;5167;52.164;10.530;2022-11-20T04:42:55;-1.00;34.60
10245;DHT22;5167;52.164;10.530;2022-11-20T04:45:22;-1.00;34.70
10245;DHT22;5167;52.164;10.530;2022-11-20T04:47:48;-1.00;34.00
10245;DHT22;5167;52.164;10.530;2022-11-20T04:50:14;-1.00;33.90
10245;DHT22;5167;52.164;10.530;2022-11-20T04:52:40;-1.00;34.20
10245;DHT22;5167;52.164;10.530;2022-11-20T04:55:05;-1.00;34.20
10245;DHT22;5167;52.164;10.530;2022-11-20T04:57:31;-1.00;34.40
10245;DHT22;5167;52.164;10.530;2022-11-20T04:59:57;-1.00;34.30
10245;DHT22;5167;52.164;10.530;2022-11-20T05:02:22;-1.00;33.80
10245;DHT22;5167;52.164;10.530;2022-11-20T05:04:48;-0.90;34.20
10245;DHT22;5167;52.164;10.530;2022-11-20T05:07:13;-1.00;34.20
10245;DHT22;5167;52.164;10.530;2022-11-20T05:09:39;-1.10;34.20
10245;DHT22;5167;52.164;10.530;2022-11-20T05:12:07;-1.00;34.30
10245;DHT22;5167;52.164;10.530;2022-11-20T05:14:33;-1.00;34.30
10245;DHT22;5167;52.164;10.530;2022-11-20T05:16:59;-1.00;34.20
10245;DHT22;5167;52.164;10.530;2022-11-20T05:19:24;-0.90;34.20
10245;DHT22;5167;52.164;10.530;2022-11-20T05:21:50;-1.00;33.90
10245;DHT22;5167;52.164;10.530;2022-11-20T05:24:15;-0.90;34.00
10245;DHT22;5167;52.164;10.530;2022-11-20T05:26:41;-0.90;33.30
10245;DHT22;5167;52.164;10.530;2022-11-20T05:29:06;-1.00;33.20
10245;DHT22;5167;52.164;10.530;2022-11-20T05:31:32;-1.00;33.50
10245;DHT22;5167;52.164;10.530;2022-11-20T05:33:57;-1.00;33.40
10245;DHT22;5167;52.164;10.530;2022-11-20T05:36:23;-0.90;33.80
10245;DHT22;5167;52.164;10.530;2022-11-20T05:38:49;-0.90;33.80
10245;DHT22;5167;52.164;10.530;2022-11-20T05:41:16;-0.90;33.10
10245;DHT22;5167;52.164;10.530;2022-11-20T05:43:44;-0.90;32.70
10245;DHT22;5167;52.164;10.530;2022-11-20T05:46:11;-0.90;32.80
10245;DHT22;5167;52.164;10.530;2022-11-20T05:48:38;-1.00;33.20
10245;DHT22;5167;52.164;10.530;2022-11-20T05:51:06;-0.90;33.10
10245;DHT22;5167;52.164;10.530;2022-11-20T05:53:32;-0.90;32.60
10245;DHT22;5167;52.164;10.530;2022-11-20T05:55:59;-1.00;32.50
10245;DHT22;5167;52.164;10.530;2022-11-20T05:58:26;-1.00;32.70
10245;DHT22;5167;52.164;10.530;2022-11-20T06:00:52;-1.00;32.30
10245;DHT22;5167;52.164;10.530;2022-11-20T06:03:17;-1.10;32.30
10245;DHT22;5167;52.164;10.530;2022-11-20T06:05:43;-1.00;32.60
10245;DHT22;5167;52.164;10.530;2022-11-20T06:08:08;-1.10;33.40
10245;DHT22;5167;52.164;10.530;2022-11-20T06:10:34;-1.10;33.50
10245;DHT22;5167;52.164;10.530;2022-11-20T06:13:00;-1.00;33.80
10245;DHT22;5167;52.164;10.530;2022-11-20T06:15:25;-1.00;33.70
10245;DHT22;5167;52.164;10.530;2022-11-20T06:17:54;-1.00;33.50
10245;DHT22;5167;52.164;10.530;2022-11-20T06:20:21;-1.00;33.20
10245;DHT22;5167;52.164;10.530;2022-11-20T06:22:47;-1.00;33.10
10245;DHT22;5167;52.164;10.530;2022-11-20T06:25:13;-1.00;33.20
10245;DHT22;5167;52.164;10.530;2022-11-20T06:27:38;-1.00;34.40
10245;DHT22;5167;52.164;10.530;2022-11-20T06:30:05;-1.00;33.80
10245;DHT22;5167;52.164;10.530;2022-11-20T06:32:30;-1.00;33.70
10245;DHT22;5167;52.164;10.530;2022-11-20T06:34:56;-1.00;33.70
10245;DHT22;5167;52.164;10.530;2022-11-20T06:37:21;-1.00;33.80
10245;DHT22;5167;52.164;10.530;2022-11-20T06:39:47;-1.10;34.10
10245;DHT22;5167;52.164;10.530;2022-11-20T06:42:12;-1.10;34.30
10245;DHT22;5167;52.164;10.530;2022-11-20T06:44:38;-1.00;33.90
10245;DHT22;5167;52.164;10.530;2022-11-20T06:47:03;-1.00;33.80
10245;DHT22;5167;52.164;10.530;2022-11-20T06:49:29;-1.00;33.60
10245;DHT22;5167;52.164;10.530;2022-11-20T06:51:54;-1.00;33.90
10245;DHT22;5167;52.164;10.530;2022-11-20T06:54:20;-1.00;34.30
10245;DHT22;5167;52.164;10.530;2022-11-20T06:56:48;-1.00;34.50
10245;DHT22;5167;52.164;10.530;2022-11-20T06:59:14;-1.00;35.10
10245;DHT22;5167;52.164;10.530;2022-11-20T07:01:40;-1.00;35.10
10245;DHT22;5167;52.164;10.530;2022-11-20T07:04:05;-0.90;35.40
10245;DHT22;5167;52.164;10.530;2022-11-20T07:06:31;-0.90;35.60
10245;DHT22;5167;52.164;10.530;2022-11-20T07:08:57;-0.90;35.50
10245;DHT22;5167;52.164;10.530;2022-11-20T07:11:23;-0.80;34.90
10245;DHT22;5167;52.164;10.530;2022-11-20T07:13:48;-0.90;34.80
10245;DHT22;5167;52.164;10.530;2022-11-20T07:16:14;-0.80;35.90
10245;DHT22;5167;52.164;10.530;2022-11-20T07:18:39;-0.80;36.50
10245;DHT22;5167;52.164;10.530;2022-11-20T07:21:07;-0.70;36.90
10245;DHT22;5167;52.164;10.530;2022-11-20T07:23:34;-0.70;35.80
10245;DHT22;5167;52.164;10.530;2022-11-20T07:26:07;-0.70;36.10
10245;DHT22;5167;52.164;10.530;2022-11-20T07:28:33;-0.70;36.40
10245;DHT22;5167;52.164;10.530;2022-11-20T07:30:58;-0.60;35.90
10245;DHT22;5167;52.164;10.530;2022-11-20T07:33:24;-0.60;35.50
10245;DHT22;5167;52.164;10.530;2022-11-20T07:35:50;-0.50;36.20
10245;DHT22;5167;52.164;10.530;2022-11-20T07:38:15;-0.50;36.20
10245;DHT22;5167;52.164;10.530;2022-11-20T07:40:41;-0.40;35.90
10245;DHT22;5167;52.164;10.530;2022-11-20T07:43:06;-0.40;36.10
10245;DHT22;5167;52.164;10.530;2022-11-20T07:45:32;-0.40;35.90
10245;DHT22;5167;52.164;10.530;2022-11-20T07:47:57;-0.30;35.40
10245;DHT22;5167;52.164;10.530;2022-11-20T07:50:23;-0.30;36.20
10245;DHT22;5167;52.164;10.530;2022-11-20T07:52:48;-0.30;35.80
10245;DHT22;5167;52.164;10.530;2022-11-20T07:55:14;-0.20;35.90
10245;DHT22;5167;52.164;10.530;2022-11-20T07:57:40;-0.20;36.10
10245;DHT22;5167;52.164;10.530;2022-11-20T08:00:07;-0.20;35.60
10245;DHT22;5167;52.164;10.530;2022-11-20T08:02:40;-0.20;35.50
10245;DHT22;5167;52.164;10.530;2022-11-20T08:05:06;-0.10;35.80
10245;DHT22;5167;52.164;10.530;2022-11-20T08:07:39;0.00;35.90
10245;DHT22;5167;52.164;10.530;2022-11-20T08:10:06;0.00;35.60
10245;DHT22;5167;52.164;10.530;2022-11-20T08:12:32;0.00;36.10
10245;DHT22;5167;52.164;10.530;2022-11-20T08:15:17;0.10;36.20
10245;DHT22;5167;52.164;10.530;2022-11-20T08:17:42;0.10;36.20
10245;DHT22;5167;52.164;10.530;2022-11-20T08:20:08;0.20;36.40
10245;DHT22;5167;52.164;10.530;2022-11-20T08:22:34;0.30;36.30
10245;DHT22;5167;52.164;10.530;2022-11-20T08:25:00;0.30;35.80
10245;DHT22;5167;52.164;10.530;2022-11-20T08:27:25;0.40;36.00
10245;DHT22;5167;52.164;10.530;2022-11-20T08:29:51;0.40;36.40
10245;DHT22;5167;52.164;10.530;2022-11-20T08:32:16;0.50;36.50
10245;DHT22;5167;52.164;10.530;2022-11-20T08:34:42;0.50;36.60
10245;DHT22;5167;52.164;10.530;2022-11-20T08:37:07;0.60;36.30
10245;DHT22;5167;52.164;10.530;2022-11-20T08:39:33;0.60;36.70
10245;DHT22;5167;52.164;10.530;2022-11-20T08:41:58;0.60;36.30
10245;DHT22;5167;52.164;10.530;2022-11-20T08:44:24;0.60;36.50
10245;DHT22;5167;52.164;10.530;2022-11-20T08:46:49;0.70;36.50
10245;DHT22;5167;52.164;10.530;2022-11-20T08:49:15;0.80;36.00
10245;DHT22;5167;52.164;10.530;2022-11-20T08:51:41;0.80;36.30
10245;DHT22;5167;52.164;10.530;2022-11-20T08:54:07;0.80;35.60
10245;DHT22;5167;52.164;10.530;2022-11-20T08:56:33;0.80;36.10
10245;DHT22;5167;52.164;10.530;2022-11-20T08:58:59;0.90;35.90
10245;DHT22;5167;52.164;10.530;2022-11-20T09:01:25;0.90;35.50
10245;DHT22;5167;52.164;10.530;2022-11-20T09:03:51;1.00;35.30
10245;DHT22;5167;52.164;10.530;2022-11-20T09:06:16;1.00;34.40
10245;DHT22;5167;52.164;10.530;2022-11-20T09:08:42;1.00;33.40
10245;DHT22;5167;52.164;10.530;2022-11-20T09:11:08;1.00;33.60
10245;DHT22;5167;52.164;10.530;2022-11-20T09:13:35;1.00;32.70
10245;DHT22;5167;52.164;10.530;2022-11-20T09:16:06;1.10;32.10
10245;DHT22;5167;52.164;10.530;2022-11-20T09:18:34;1.10;31.70
10245;DHT22;5167;52.164;10.530;2022-11-20T09:21:04;1.10;31.00
10245;DHT22;5167;52.164;10.530;2022-11-20T09:23:35;1.40;30.20
10245;DHT22;5167;52.164;10.530;2022-11-20T09:26:05;1.20;29.20
10245;DHT22;5167;52.164;10.530;2022-11-20T09:28:31;1.20;29.10
10245;DHT22;5167;52.164;10.530;2022-11-20T09:30:57;1.20;28.60
10245;DHT22;5167;52.164;10.530;2022-11-20T09:33:22;1.20;27.10
10245;DHT22;5167;52.164;10.530;2022-11-20T09:35:48;1.30;26.90
10245;DHT22;5167;52.164;10.530;2022-11-20T09:38:13;1.30;27.20
10245;DHT22;5167;52.164;10.530;2022-11-20T09:40:52;1.30;27.20
10245;DHT22;5167;52.164;10.530;2022-11-20T09:43:53;1.30;27.10
10245;DHT22;5167;52.164;10.530;2022-11-20T09:46:39;1.40;26.70
10245;DHT22;5167;52.164;10.530;2022-11-20T09:54:22;1.50;26.00
10245;DHT22;5167;52.164;10.530;2022-11-20T09:56:55;1.60;26.10
10245;DHT22;5167;52.164;10.530;2022-11-20T09:59:30;1.60;25.50
10245;DHT22;5167;52.164;10.530;2022-11-20T10:01:58;1.60;25.10
10245;DHT22;5167;52.164;10.530;2022-11-20T10:04:25;1.70;25.50
10245;DHT22;5167;52.164;10.530;2022-11-20T10:06:53;1.80;25.10
10245;DHT22;5167;52.164;10.530;2022-11-20T10:09:35;1.80;26.20
10245;DHT22;5167;52.164;10.530;2022-11-20T10:26:02;2.30;25.30
10245;DHT22;5167;52.164;10.530;2022-11-20T10:31:34;2.50;24.50
10245;DHT22;5167;52.164;10.530;2022-11-20T10:34:06;2.60;23.10
10245;DHT22;5167;52.164;10.530;2022-11-20T10:36:50;2.60;21.60
10245;DHT22;5167;52.164;10.530;2022-11-20T10:41:51;2.70;20.40
10245;DHT22;5167;52.164;10.530;2022-11-20T10:44:26;2.80;20.30
10245;DHT22;5167;52.164;10.530;2022-11-20T10:47:17;2.90;20.40
10245;DHT22;5167;52.164;10.530;2022-11-20T10:49:49;2.90;20.40
10245;DHT22;5167;52.164;10.530;2022-11-20T10:52:32;2.90;20.00
10245;DHT22;5167;52.164;10.530;2022-11-20T10:55:25;3.00;19.50
10245;DHT22;5167;52.164;10.530;2022-11-20T10:58:18;3.10;19.30
10245;DHT22;5167;52.164;10.530;2022-11-20T11:00:47;3.10;19.30
10245;DHT22;5167;52.164;10.530;2022-11-20T11:03:24;3.20;16.50
10245;DHT22;5167;52.164;10.530;2022-11-20T11:06:00;3.30;17.00
10245;DHT22;5167;52.164;10.530;2022-11-20T11:08:34;3.30;15.00
10245;DHT22;5167;52.164;10.530;2022-11-20T11:11:07;3.30;15.70
10245;DHT22;5167;52.164;10.530;2022-11-20T11:13:38;3.30;14.70
10245;DHT22;5167;52.164;10.530;2022-11-20T11:16:03;3.30;14.90
10245;DHT22;5167;52.164;10.530;2022-11-20T11:18:31;3.40;15.40
10245;DHT22;5167;52.164;10.530;2022-11-20T11:20:59;3.40;13.70
10245;DHT22;5167;52.164;10.530;2022-11-20T11:23:32;3.40;14.30
10245;DHT22;5167;52.164;10.530;2022-11-20T11:26:00;3.40;13.30
10245;DHT22;5167;52.164;10.530;2022-11-20T11:28:27;3.40;13.70
10245;DHT22;5167;52.164;10.530;2022-11-20T11:30:53;3.40;13.00
10245;DHT22;5167;52.164;10.530;2022-11-20T11:33:22;3.40;12.00
10245;DHT22;5167;52.164;10.530;2022-11-20T11:36:31;3.50;12.40
10245;DHT22;5167;52.164;10.530;2022-11-20T11:38:40;3.50;11.90
10245;DHT22;5167;52.164;10.530;2022-11-20T11:41:17;3.60;10.90
10245;DHT22;5167;52.164;10.530;2022-11-20T11:43:55;3.60;11.40
10245;DHT22;5167;52.164;10.530;2022-11-20T11:46:44;3.70;11.60
10245;DHT22;5167;52.164;10.530;2022-11-20T11:49:17;3.70;10.80
10245;DHT22;5167;52.164;10.530;2022-11-20T11:52:03;3.80;10.10
10245;DHT22;5167;52.164;10.530;2022-11-20T11:57:10;4.00;8.90
10245;DHT22;5167;52.164;10.530;2022-11-20T11:59:51;3.90;8.10
10245;DHT22;5167;52.164;10.530;2022-11-20T12:05:09;4.20;8.00
10245;DHT22;5167;52.164;10.530;2022-11-20T12:07:42;4.10;7.70
10245;DHT22;5167;52.164;10.530;2022-11-20T12:10:20;4.20;7.70
10245;DHT22;5167;52.164;10.530;2022-11-20T12:12:53;4.20;8.20
10245;DHT22;5167;52.164;10.530;2022-11-20T12:15:27;4.30;8.40
10245;DHT22;5167;52.164;10.530;2022-11-20T12:17:54;4.30;8.20
10245;DHT22;5167;52.164;10.530;2022-11-20T12:20:23;4.30;8.40
10245;DHT22;5167;52.164;10.530;2022-11-20T12:23:01;4.40;8.60
10245;DHT22;5167;52.164;10.530;2022-11-20T12:25:34;4.40;8.40
10245;DHT22;5167;52.164;10.530;2022-11-20T12:28:11;4.40;9.00
10245;DHT22;5167;52.164;10.530;2022-11-20T12:30:49;4.40;8.70
10245;DHT22;5167;52.164;10.530;2022-11-20T12:33:25;4.40;8.40
10245;DHT22;5167;52.164;10.530;2022-11-20T12:36:13;4.30;7.80
10245;DHT22;5167;52.164;10.530;2022-11-20T12:39:07;4.40;8.30
10245;DHT22;5167;52.164;10.530;2022-11-20T12:41:51;4.30;7.10
10245;DHT22;5167;52.164;10.530;2022-11-20T12:53:05;4.40;7.60
10245;DHT22;5167;52.164;10.530;2022-11-20T13:01:00;4.40;7.30
10245;DHT22;5167;52.164;10.530;2022-11-20T13:03:36;4.40;7.50
10245;DHT22;5167;52.164;10.530;2022-11-20T13:06:16;4.30;7.30
10245;DHT22;5167;52.164;10.530;2022-11-20T13:08:53;4.40;8.10
10245;DHT22;5167;52.164;10.530;2022-11-20T13:11:21;4.40;7.60
10245;DHT22;5167;52.164;10.530;2022-11-20T13:17:14;4.50;7.20
10245;DHT22;5167;52.164;10.530;2022-11-20T13:19:41;4.50;7.50
10245;DHT22;5167;52.164;10.530;2022-11-20T13:22:08;4.60;7.40
10245;DHT22;5167;52.164;10.530;2022-11-20T13:24:34;4.60;7.60
10245;DHT22;5167;52.164;10.530;2022-11-20T13:29:26;4.70;7.80
10245;DHT22;5167;52.164;10.530;2022-11-20T13:32:02;4.70;7.80
10245;DHT22;5167;52.164;10.530;2022-11-20T13:34:29;4.70;7.60
10245;DHT22;5167;52.164;10.530;2022-11-20T13:36:57;4.70;7.50
10245;DHT22;5167;52.164;10.530;2022-11-20T13:39:36;4.60;5.90
10245;DHT22;5167;52.164;10.530;2022-11-20T13:42:26;4.40;5.60
10245;DHT22;5167;52.164;10.530;2022-11-20T13:45:01;4.40;5.00
10245;DHT22;5167;52.164;10.530;2022-11-20T13:47:33;4.30;5.80
10245;DHT22;5167;52.164;10.530;2022-11-20T13:50:03;4.30;6.20
10245;DHT22;5167;52.164;10.530;2022-11-20T14:00:19;4.20;6.40
10245;DHT22;5167;52.164;10.530;2022-11-20T14:05:36;4.20;6.80
10245;DHT22;5167;52.164;10.530;2022-11-20T14:08:04;4.10;7.60
10245;DHT22;5167;52.164;10.530;2022-11-20T14:10:31;4.10;7.60
10245;DHT22;5167;52.164;10.530;2022-11-20T14:12:57;4.00;7.50
10245;DHT22;5167;52.164;10.530;2022-11-20T14:15:28;4.10;7.40
10245;DHT22;5167;52.164;10.530;2022-11-20T14:17:54;4.00;8.10
10245;DHT22;5167;52.164;10.530;2022-11-20T14:20:22;4.10;8.10
10245;DHT22;5167;52.164;10.530;2022-11-20T14:22:52;4.10;8.20
10245;DHT22;5167;52.164;10.530;2022-11-20T14:25:21;4.10;8.10
10245;DHT22;5167;52.164;10.530;2022-11-20T14:28:00;4.10;8.30
10245;DHT22;5167;52.164;10.530;2022-11-20T14:30:29;4.00;8.50
10245;DHT22;5167;52.164;10.530;2022-11-20T14:33:02;4.00;8.60
10245;DHT22;5167;52.164;10.530;2022-11-20T14:35:31;3.90;9.40
10245;DHT22;5167;52.164;10.530;2022-11-20T14:37:59;4.00;9.40
10245;DHT22;5167;52.164;10.530;2022-11-20T14:40:32;3.90;9.70
10245;DHT22;5167;52.164;10.530;2022-11-20T14:43:00;3.90;10.60
10245;DHT22;5167;52.164;10.530;2022-11-20T14:45:26;3.90;10.60
10245;DHT22;5167;52.164;10.530;2022-11-20T14:47:54;3.80;10.30
10245;DHT22;5167;52.164;10.530;2022-11-20T14:50:24;3.90;10.60
10245;DHT22;5167;52.164;10.530;2022-11-20T14:52:58;3.90;9.90
10245;DHT22;5167;52.164;10.530;2022-11-20T14:55:37;3.90;10.00
10245;DHT22;5167;52.164;10.530;2022-11-20T14:58:05;3.80;11.00
10245;DHT22;5167;52.164;10.530;2022-11-20T15:00:32;4.00;11.30
10245;DHT22;5167;52.164;10.530;2022-11-20T15:02:58;3.90;11.50
10245;DHT22;5167;52.164;10.530;2022-11-20T15:05:43;3.80;11.30
10245;DHT22;5167;52.164;10.530;2022-11-20T15:08:10;3.90;12.50
10245;DHT22;5167;52.164;10.530;2022-11-20T15:10:36;3.80;12.10
10245;DHT22;5167;52.164;10.530;2022-11-20T15:13:05;3.80;12.40
10245;DHT22;5167;52.164;10.530;2022-11-20T15:15:51;3.80;12.50
10245;DHT22;5167;52.164;10.530;2022-11-20T15:18:31;3.70;12.80
10245;DHT22;5167;52.164;10.530;2022-11-20T15:21:00;3.80;12.90
10245;DHT22;5167;52.164;10.530;2022-11-20T15:23:26;3.70;12.60
10245;DHT22;5167;52.164;10.530;2022-11-20T15:25:52;3.70;13.00
10245;DHT22;5167;52.164;10.530;2022-11-20T15:28:41;3.70;13.10
10245;DHT22;5167;52.164;10.530;2022-11-20T15:31:06;3.70;13.30
10245;DHT22;5167;52.164;10.530;2022-11-20T15:33:32;3.60;13.10
10245;DHT22;5167;52.164;10.530;2022-11-20T15:35:58;3.50;13.30
10245;DHT22;5167;52.164;10.530;2022-11-20T15:38:24;3.50;13.90
10245;DHT22;5167;52.164;10.530;2022-11-20T15:40:50;3.50;14.30
10245;DHT22;5167;52.164;10.530;2022-11-20T15:43:15;3.40;14.60
10245;DHT22;5167;52.164;10.530;2022-11-20T15:45:46;3.40;15.20
10245;DHT22;5167;52.164;10.530;2022-11-20T15:48:18;3.40;15.20
10245;DHT22;5167;52.164;10.530;2022-11-20T15:53:37;3.30;16.40
10245;DHT22;5167;52.164;10.530;2022-11-20T15:56:03;3.30;16.80
10245;DHT22;5167;52.164;10.530;2022-11-20T15:58:29;3.20;17.20
10245;DHT22;5167;52.164;10.530;2022-11-20T16:00:55;3.20;17.40
10245;DHT22;5167;52.164;10.530;2022-11-20T16:03:20;3.10;17.80
10245;DHT22;5167;52.164;10.530;2022-11-20T16:05:46;3.10;17.80
10245;DHT22;5167;52.164;10.530;2022-11-20T16:08:12;3.20;16.90
10245;DHT22;5167;52.164;10.530;2022-11-20T16:10:38;3.10;17.20
10245;DHT22;5167;52.164;10.530;2022-11-20T16:13:04;3.10;16.70
10245;DHT22;5167;52.164;10.530;2022-11-20T16:15:56;3.10;17.40
10245;DHT22;5167;52.164;10.530;2022-11-20T16:18:22;3.10;17.60
10245;DHT22;5167;52.164;10.530;2022-11-20T16:20:50;3.00;17.30
10245;DHT22;5167;52.164;10.530;2022-11-20T16:23:16;3.00;17.60
10245;DHT22;5167;52.164;10.530;2022-11-20T16:25:42;3.00;17.80
10245;DHT22;5167;52.164;10.530;2022-11-20T16:28:09;3.00;19.30
10245;DHT22;5167;52.164;10.530;2022-11-20T16:30:35;2.90;19.60
10245;DHT22;5167;52.164;10.530;2022-11-20T16:33:01;2.90;19.70
10245;DHT22;5167;52.164;10.530;2022-11-20T16:35:28;2.90;20.00
10245;DHT22;5167;52.164;10.530;2022-11-20T16:37:54;2.80;19.90
10245;DHT22;5167;52.164;10.530;2022-11-20T16:40:20;2.70;20.40
10245;DHT22;5167;52.164;10.530;2022-11-20T16:42:46;2.70;20.90
10245;DHT22;5167;52.164;10.530;2022-11-20T16:45:12;2.70;21.20
10245;DHT22;5167;52.164;10.530;2022-11-20T16:47:37;2.70;21.40
10245;DHT22;5167;52.164;10.530;2022-11-20T16:50:04;2.70;21.40
10245;DHT22;5167;52.164;10.530;2022-11-20T16:52:30;2.60;21.60
10245;DHT22;5167;52.164;10.530;2022-11-20T16:54:56;2.60;21.60
10245;DHT22;5167;52.164;10.530;2022-11-20T16:57:22;2.60;22.30
10245;DHT22;5167;52.164;10.530;2022-11-20T16:59:48;2.50;22.70